sensor_id;sensor_type;location;lat;lon;timestamp;P1;durP1;ratioP1;P2;durP2;ratioP2
4686;SDS011;2357;47.316;-1.348;2023-01-24T00:01:00;20.33;;;11.57;;
4686;SDS011;2357;47.316;-1.348;2023-01-24T00:03:26;17.40;;;11.83;;
4686;SDS011;2357;47.316;-1.348;2023-01-24T00:05:51;28.77;;;15.77;;
4686;SDS011;2357;47.316;-1.348;2023-01-24T00:08:18;20.00;;;12.47;;
4686;SDS011;2357;47.316;-1.348;2023-01-24T00:10:44;19.57;;;11.93;;
4686;SDS011;2357;47.316;-1.348;2023-01-24T00:13:11;15.90;;;11.07;;
4686;SDS011;2357;47.316;-1.348;2023-01-24T00:15:38;17.43;;;12.27;;
4686;SDS011;2357;47.316;-1.348;2023-01-24T00:18:04;18.30;;;9.60;;
4686;SDS011;2357;47.316;-1.348;2023-01-24T00:20:30;22.07;;;10.93;;
4686;SDS011;2357;47.316;-1.348;2023-01-24T00:22:56;16.37;;;10.00;;
4686;SDS011;2357;47.316;-1.348;2023-01-24T00:25:21;28.60;;;15.10;;
4686;SDS011;2357;47.316;-1.348;2023-01-24T00:27:47;26.03;;;14.67;;
4686;SDS011;2357;47.316;-1.348;2023-01-24T00:30:12;18.17;;;11.00;;
4686;SDS011;2357;47.316;-1.348;2023-01-24T00:32:38;18.03;;;11.90;;
4686;SDS011;2357;47.316;-1.348;2023-01-24T00:35:04;17.33;;;10.73;;
4686;SDS011;2357;47.316;-1.348;2023-01-24T00:37:30;18.80;;;12.03;;
4686;SDS011;2357;47.316;-1.348;2023-01-24T00:39:56;18.90;;;10.40;;
4686;SDS011;2357;47.316;-1.348;2023-01-24T00:42:21;16.13;;;11.03;;
4686;SDS011;2357;47.316;-1.348;2023-01-24T00:44:47;20.17;;;11.70;;
4686;SDS011;2357;47.316;-1.348;2023-01-24T00:47:12;16.20;;;11.20;;
4686;SDS011;2357;47.316;-1.348;2023-01-24T00:49:38;15.23;;;10.90;;
4686;SDS011;2357;47.316;-1.348;2023-01-24T00:52:04;15.60;;;10.27;;
4686;SDS011;2357;47.316;-1.348;2023-01-24T00:54:29;14.23;;;10.07;;
4686;SDS011;2357;47.316;-1.348;2023-01-24T00:56:55;18.77;;;11.23;;
4686;SDS011;2357;47.316;-1.348;2023-01-24T00:59:20;18.40;;;11.27;;
4686;SDS011;2357;47.316;-1.348;2023-01-24T01:01:46;14.93;;;10.20;;
4686;SDS011;2357;47.316;-1.348;2023-01-24T01:04:12;20.53;;;11.30;;
4686;SDS011;2357;47.316;-1.348;2023-01-24T01:06:37;15.40;;;10.27;;
4686;SDS011;2357;47.316;-1.348;2023-01-24T01:09:03;18.27;;;10.97;;
4686;SDS011;2357;47.316;-1.348;2023-01-24T01:11:29;15.37;;;10.30;;
4686;SDS011;2357;47.316;-1.348;2023-01-24T01:13:55;15.80;;;10.00;;
4686;SDS011;2357;47.316;-1.348;2023-01-24T01:16:21;13.27;;;9.67;;
4686;SDS011;2357;47.316;-1.348;2023-01-24T01:18:49;15.67;;;10.33;;
4686;SDS011;2357;47.316;-1.348;2023-01-24T01:21:16;14.17;;;10.27;;
4686;SDS011;2357;47.316;-1.348;2023-01-24T01:23:44;16.30;;;11.00;;
4686;SDS011;2357;47.316;-1.348;2023-01-24T01:26:13;25.47;;;12.90;;
4686;SDS011;2357;47.316;-1.348;2023-01-24T01:28:41;14.83;;;10.33;;
4686;SDS011;2357;47.316;-1.348;2023-01-24T01:31:07;21.00;;;12.27;;
4686;SDS011;2357;47.316;-1.348;2023-01-24T01:33:33;17.40;;;11.20;;
4686;SDS011;2357;47.316;-1.348;2023-01-24T01:35:59;13.50;;;9.10;;
4686;SDS011;2357;47.316;-1.348;2023-01-24T01:38:24;18.80;;;11.87;;
4686;SDS011;2357;47.316;-1.348;2023-01-24T01:40:52;17.10;;;11.40;;
4686;SDS011;2357;47.316;-1.348;2023-01-24T01:43:20;15.60;;;10.63;;
4686;SDS011;2357;47.316;-1.348;2023-01-24T01:45:51;13.70;;;9.77;;
4686;SDS011;2357;47.316;-1.348;2023-01-24T01:48:19;17.70;;;10.83;;
4686;SDS011;2357;47.316;-1.348;2023-01-24T01:51:17;19.87;;;11.53;;
4686;SDS011;2357;47.316;-1.348;2023-01-24T01:53:53;16.17;;;11.20;;
4686;SDS011;2357;47.316;-1.348;2023-01-24T01:56:44;15.60;;;11.43;;
4686;SDS011;2357;47.316;-1.348;2023-01-24T01:59:14;22.33;;;11.80;;
4686;SDS011;2357;47.316;-1.348;2023-01-24T02:01:44;18.53;;;11.30;;
4686;SDS011;2357;47.316;-1.348;2023-01-24T02:04:13;16.00;;;11.70;;
4686;SDS011;2357;47.316;-1.348;2023-01-24T02:09:29;21.63;;;11.53;;
4686;SDS011;2357;47.316;-1.348;2023-01-24T02:11:58;16.07;;;11.40;;
4686;SDS011;2357;47.316;-1.348;2023-01-24T02:14:28;21.20;;;11.60;;
4686;SDS011;2357;47.316;-1.348;2023-01-24T02:17:17;27.50;;;12.50;;
4686;SDS011;2357;47.316;-1.348;2023-01-24T02:19:55;19.80;;;12.27;;
4686;SDS011;2357;47.316;-1.348;2023-01-24T02:27:55;17.67;;;11.40;;
4686;SDS011;2357;47.316;-1.348;2023-01-24T02:30:21;17.77;;;11.60;;
4686;SDS011;2357;47.316;-1.348;2023-01-24T02:32:46;23.13;;;11.77;;
4686;SDS011;2357;47.316;-1.348;2023-01-24T02:35:29;15.60;;;11.57;;
4686;SDS011;2357;47.316;-1.348;2023-01-24T02:37:56;15.00;;;10.93;;
4686;SDS011;2357;47.316;-1.348;2023-01-24T02:40:24;17.53;;;10.87;;
4686;SDS011;2357;47.316;-1.348;2023-01-24T02:42:51;18.23;;;10.97;;
4686;SDS011;2357;47.316;-1.348;2023-01-24T02:45:26;17.93;;;10.80;;
4686;SDS011;2357;47.316;-1.348;2023-01-24T02:47:53;16.57;;;11.37;;
4686;SDS011;2357;47.316;-1.348;2023-01-24T02:50:21;16.87;;;10.73;;
4686;SDS011;2357;47.316;-1.348;2023-01-24T02:52:49;17.40;;;12.17;;
4686;SDS011;2357;47.316;-1.348;2023-01-24T02:55:34;17.47;;;11.80;;
4686;SDS011;2357;47.316;-1.348;2023-01-24T02:58:23;20.63;;;12.33;;
4686;SDS011;2357;47.316;-1.348;2023-01-24T03:00:49;17.80;;;11.30;;
4686;SDS011;2357;47.316;-1.348;2023-01-24T03:03:15;18.20;;;11.70;;
4686;SDS011;2357;47.316;-1.348;2023-01-24T03:05:40;16.73;;;11.30;;
4686;SDS011;2357;47.316;-1.348;2023-01-24T03:08:31;14.00;;;10.53;;
4686;SDS011;2357;47.316;-1.348;2023-01-24T03:10:57;16.67;;;11.03;;
4686;SDS011;2357;47.316;-1.348;2023-01-24T03:13:23;15.20;;;10.73;;
4686;SDS011;2357;47.316;-1.348;2023-01-24T03:16:08;16.10;;;11.00;;
4686;SDS011;2357;47.316;-1.348;2023-01-24T03:18:54;16.33;;;11.93;;
4686;SDS011;2357;47.316;-1.348;2023-01-24T03:21:38;19.00;;;11.43;;
4686;SDS011;2357;47.316;-1.348;2023-01-24T03:24:23;20.77;;;12.70;;
4686;SDS011;2357;47.316;-1.348;2023-01-24T03:27:07;17.03;;;12.67;;
4686;SDS011;2357;47.316;-1.348;2023-01-24T03:29:52;18.47;;;12.63;;
4686;SDS011;2357;47.316;-1.348;2023-01-24T03:32:36;18.27;;;11.73;;
4686;SDS011;2357;47.316;-1.348;2023-01-24T03:35:20;23.67;;;14.03;;
4686;SDS011;2357;47.316;-1.348;2023-01-24T03:37:46;16.43;;;11.77;;
4686;SDS011;2357;47.316;-1.348;2023-01-24T03:40:35;23.43;;;13.77;;
4686;SDS011;2357;47.316;-1.348;2023-01-24T03:43:01;23.40;;;12.63;;
4686;SDS011;2357;47.316;-1.348;2023-01-24T03:45:28;20.67;;;12.53;;
4686;SDS011;2357;47.316;-1.348;2023-01-24T03:48:06;18.03;;;12.63;;
4686;SDS011;2357;47.316;-1.348;2023-01-24T03:50:39;22.13;;;13.80;;
4686;SDS011;2357;47.316;-1.348;2023-01-24T03:53:26;21.50;;;13.67;;
4686;SDS011;2357;47.316;-1.348;2023-01-24T03:55:54;22.13;;;13.97;;
4686;SDS011;2357;47.316;-1.348;2023-01-24T03:58:22;20.93;;;13.37;;
4686;SDS011;2357;47.316;-1.348;2023-01-24T04:00:48;20.43;;;13.50;;
4686;SDS011;2357;47.316;-1.348;2023-01-24T04:03:14;20.33;;;13.10;;
4686;SDS011;2357;47.316;-1.348;2023-01-24T04:05:40;20.13;;;12.63;;
4686;SDS011;2357;47.316;-1.348;2023-01-24T04:08:05;24.43;;;14.50;;
4686;SDS011;2357;47.316;-1.348;2023-01-24T04:10:32;22.77;;;14.33;;
4686;SDS011;2357;47.316;-1.348;2023-01-24T04:12:58;22.13;;;13.97;;
4686;SDS011;2357;47.316;-1.348;2023-01-24T04:15:25;23.07;;;15.00;;
4686;SDS011;2357;47.316;-1.348;2023-01-24T04:17:55;21.57;;;14.17;;
4686;SDS011;2357;47.316;-1.348;2023-01-24T04:20:26;22.63;;;15.23;;
4686;SDS011;2357;47.316;-1.348;2023-01-24T04:22:53;22.90;;;14.77;;
4686;SDS011;2357;47.316;-1.348;2023-01-24T04:25:19;20.57;;;13.60;;
4686;SDS011;2357;47.316;-1.348;2023-01-24T04:27:45;23.73;;;13.87;;
4686;SDS011;2357;47.316;-1.348;2023-01-24T04:30:11;25.83;;;14.60;;
4686;SDS011;2357;47.316;-1.348;2023-01-24T04:32:38;22.20;;;14.80;;
4686;SDS011;2357;47.316;-1.348;2023-01-24T04:35:04;24.83;;;15.80;;
4686;SDS011;2357;47.316;-1.348;2023-01-24T04:37:31;22.63;;;13.40;;
4686;SDS011;2357;47.316;-1.348;2023-01-24T04:39:57;26.83;;;15.03;;
4686;SDS011;2357;47.316;-1.348;2023-01-24T04:42:23;25.97;;;14.93;;
4686;SDS011;2357;47.316;-1.348;2023-01-24T04:44:49;19.83;;;14.13;;
4686;SDS011;2357;47.316;-1.348;2023-01-24T04:47:15;24.60;;;15.87;;
4686;SDS011;2357;47.316;-1.348;2023-01-24T04:49:40;22.27;;;15.40;;
4686;SDS011;2357;47.316;-1.348;2023-01-24T04:52:08;23.67;;;15.30;;
4686;SDS011;2357;47.316;-1.348;2023-01-24T04:54:38;21.90;;;14.97;;
4686;SDS011;2357;47.316;-1.348;2023-01-24T04:57:04;20.97;;;14.60;;
4686;SDS011;2357;47.316;-1.348;2023-01-24T04:59:30;27.00;;;16.27;;
4686;SDS011;2357;47.316;-1.348;2023-01-24T05:01:55;26.20;;;17.53;;
4686;SDS011;2357;47.316;-1.348;2023-01-24T05:04:21;27.50;;;15.00;;
4686;SDS011;2357;47.316;-1.348;2023-01-24T05:06:47;22.37;;;15.23;;
4686;SDS011;2357;47.316;-1.348;2023-01-24T05:09:12;23.07;;;15.10;;
4686;SDS011;2357;47.316;-1.348;2023-01-24T05:11:38;26.20;;;16.20;;
4686;SDS011;2357;47.316;-1.348;2023-01-24T05:14:04;29.93;;;16.80;;
4686;SDS011;2357;47.316;-1.348;2023-01-24T05:16:29;25.70;;;16.40;;
4686;SDS011;2357;47.316;-1.348;2023-01-24T05:18:55;25.23;;;17.30;;
4686;SDS011;2357;47.316;-1.348;2023-01-24T05:21:21;26.30;;;16.50;;
4686;SDS011;2357;47.316;-1.348;2023-01-24T05:23:50;26.63;;;16.30;;
4686;SDS011;2357;47.316;-1.348;2023-01-24T05:26:21;26.03;;;16.23;;
4686;SDS011;2357;47.316;-1.348;2023-01-24T05:28:48;26.70;;;16.43;;
4686;SDS011;2357;47.316;-1.348;2023-01-24T05:31:14;21.87;;;15.17;;
4686;SDS011;2357;47.316;-1.348;2023-01-24T05:33:40;23.40;;;15.97;;
4686;SDS011;2357;47.316;-1.348;2023-01-24T05:36:07;25.37;;;15.83;;
4686;SDS011;2357;47.316;-1.348;2023-01-24T05:38:36;31.27;;;17.83;;
4686;SDS011;2357;47.316;-1.348;2023-01-24T05:41:03;28.27;;;17.60;;
4686;SDS011;2357;47.316;-1.348;2023-01-24T05:43:33;28.50;;;16.60;;
4686;SDS011;2357;47.316;-1.348;2023-01-24T05:46:01;27.67;;;16.80;;
4686;SDS011;2357;47.316;-1.348;2023-01-24T05:48:31;25.37;;;17.97;;
4686;SDS011;2357;47.316;-1.348;2023-01-24T05:51:07;24.60;;;16.70;;
4686;SDS011;2357;47.316;-1.348;2023-01-24T05:53:35;26.43;;;17.00;;
4686;SDS011;2357;47.316;-1.348;2023-01-24T05:56:03;24.57;;;16.80;;
4686;SDS011;2357;47.316;-1.348;2023-01-24T05:58:32;32.03;;;18.60;;
4686;SDS011;2357;47.316;-1.348;2023-01-24T06:00:59;26.63;;;17.07;;
4686;SDS011;2357;47.316;-1.348;2023-01-24T06:03:25;31.77;;;17.73;;
4686;SDS011;2357;47.316;-1.348;2023-01-24T06:05:51;27.40;;;17.40;;
4686;SDS011;2357;47.316;-1.348;2023-01-24T06:08:19;28.50;;;17.33;;
4686;SDS011;2357;47.316;-1.348;2023-01-24T06:10:45;28.67;;;16.70;;
4686;SDS011;2357;47.316;-1.348;2023-01-24T06:13:12;31.60;;;17.97;;
4686;SDS011;2357;47.316;-1.348;2023-01-24T06:15:38;24.87;;;16.53;;
4686;SDS011;2357;47.316;-1.348;2023-01-24T06:18:04;28.40;;;18.17;;
4686;SDS011;2357;47.316;-1.348;2023-01-24T06:20:31;27.37;;;18.60;;
4686;SDS011;2357;47.316;-1.348;2023-01-24T06:23:04;26.13;;;16.33;;
4686;SDS011;2357;47.316;-1.348;2023-01-24T06:25:31;26.83;;;16.63;;
4686;SDS011;2357;47.316;-1.348;2023-01-24T06:27:57;23.57;;;17.80;;
4686;SDS011;2357;47.316;-1.348;2023-01-24T06:30:24;28.63;;;16.53;;
4686;SDS011;2357;47.316;-1.348;2023-01-24T06:36:25;27.60;;;16.20;;
4686;SDS011;2357;47.316;-1.348;2023-01-24T06:38:24;24.70;;;16.00;;
4686;SDS011;2357;47.316;-1.348;2023-01-24T06:40:56;24.47;;;15.93;;
4686;SDS011;2357;47.316;-1.348;2023-01-24T06:43:24;24.48;;;16.00;;
4686;SDS011;2357;47.316;-1.348;2023-01-24T06:45:50;21.23;;;12.73;;
4686;SDS011;2357;47.316;-1.348;2023-01-24T06:48:16;29.43;;;17.20;;
4686;SDS011;2357;47.316;-1.348;2023-01-24T06:50:42;25.93;;;17.63;;
4686;SDS011;2357;47.316;-1.348;2023-01-24T06:53:08;26.00;;;17.40;;
4686;SDS011;2357;47.316;-1.348;2023-01-24T06:55:34;29.23;;;16.50;;
4686;SDS011;2357;47.316;-1.348;2023-01-24T06:58:00;23.67;;;15.80;;
4686;SDS011;2357;47.316;-1.348;2023-01-24T07:00:29;25.83;;;16.80;;
4686;SDS011;2357;47.316;-1.348;2023-01-24T07:03:02;26.73;;;17.30;;
4686;SDS011;2357;47.316;-1.348;2023-01-24T07:05:33;27.73;;;17.13;;
4686;SDS011;2357;47.316;-1.348;2023-01-24T07:07:59;26.13;;;17.47;;
4686;SDS011;2357;47.316;-1.348;2023-01-24T07:10:25;29.87;;;17.40;;
4686;SDS011;2357;47.316;-1.348;2023-01-24T07:12:52;28.63;;;16.90;;
4686;SDS011;2357;47.316;-1.348;2023-01-24T07:15:17;26.40;;;16.83;;
4686;SDS011;2357;47.316;-1.348;2023-01-24T07:17:43;25.03;;;16.53;;
4686;SDS011;2357;47.316;-1.348;2023-01-24T07:20:10;26.40;;;16.43;;
4686;SDS011;2357;47.316;-1.348;2023-01-24T07:22:37;30.70;;;17.50;;
4686;SDS011;2357;47.316;-1.348;2023-01-24T07:25:04;30.77;;;18.83;;
4686;SDS011;2357;47.316;-1.348;2023-01-24T07:27:35;28.30;;;18.30;;
4686;SDS011;2357;47.316;-1.348;2023-01-24T07:30:01;27.97;;;17.23;;
4686;SDS011;2357;47.316;-1.348;2023-01-24T07:32:27;27.40;;;17.73;;
4686;SDS011;2357;47.316;-1.348;2023-01-24T07:34:52;27.87;;;17.57;;
4686;SDS011;2357;47.316;-1.348;2023-01-24T07:37:18;24.00;;;16.77;;
4686;SDS011;2357;47.316;-1.348;2023-01-24T07:39:46;26.47;;;16.77;;
4686;SDS011;2357;47.316;-1.348;2023-01-24T07:42:12;26.47;;;16.53;;
4686;SDS011;2357;47.316;-1.348;2023-01-24T07:44:38;28.17;;;16.30;;
4686;SDS011;2357;47.316;-1.348;2023-01-24T07:47:03;27.30;;;17.23;;
4686;SDS011;2357;47.316;-1.348;2023-01-24T07:49:29;27.73;;;17.10;;
4686;SDS011;2357;47.316;-1.348;2023-01-24T07:51:55;28.13;;;17.10;;
4686;SDS011;2357;47.316;-1.348;2023-01-24T07:54:20;23.70;;;16.13;;
4686;SDS011;2357;47.316;-1.348;2023-01-24T07:56:46;28.10;;;17.00;;
4686;SDS011;2357;47.316;-1.348;2023-01-24T07:59:11;22.87;;;16.57;;
4686;SDS011;2357;47.316;-1.348;2023-01-24T08:01:37;28.90;;;18.00;;
4686;SDS011;2357;47.316;-1.348;2023-01-24T08:04:03;29.00;;;16.80;;
4686;SDS011;2357;47.316;-1.348;2023-01-24T08:06:28;25.50;;;17.10;;
4686;SDS011;2357;47.316;-1.348;2023-01-24T08:08:54;25.53;;;17.23;;
4686;SDS011;2357;47.316;-1.348;2023-01-24T08:11:20;34.63;;;16.70;;
4686;SDS011;2357;47.316;-1.348;2023-01-24T08:13:47;26.70;;;17.37;;
4686;SDS011;2357;47.316;-1.348;2023-01-24T08:16:14;26.40;;;17.40;;
4686;SDS011;2357;47.316;-1.348;2023-01-24T08:18:40;23.80;;;17.50;;
4686;SDS011;2357;47.316;-1.348;2023-01-24T08:21:06;26.73;;;17.30;;
4686;SDS011;2357;47.316;-1.348;2023-01-24T08:23:32;24.43;;;16.23;;
4686;SDS011;2357;47.316;-1.348;2023-01-24T08:25:58;24.87;;;17.43;;
4686;SDS011;2357;47.316;-1.348;2023-01-24T08:28:25;23.33;;;15.80;;
4686;SDS011;2357;47.316;-1.348;2023-01-24T08:30:50;31.37;;;18.17;;
4686;SDS011;2357;47.316;-1.348;2023-01-24T08:33:16;23.83;;;15.07;;
4686;SDS011;2357;47.316;-1.348;2023-01-24T08:35:44;26.03;;;15.77;;
4686;SDS011;2357;47.316;-1.348;2023-01-24T08:38:10;23.70;;;14.03;;
4686;SDS011;2357;47.316;-1.348;2023-01-24T08:40:37;28.23;;;17.00;;
4686;SDS011;2357;47.316;-1.348;2023-01-24T08:43:03;23.93;;;15.73;;
4686;SDS011;2357;47.316;-1.348;2023-01-24T08:45:29;28.47;;;16.13;;
4686;SDS011;2357;47.316;-1.348;2023-01-24T08:47:55;25.50;;;16.97;;
4686;SDS011;2357;47.316;-1.348;2023-01-24T08:50:20;24.80;;;15.60;;
4686;SDS011;2357;47.316;-1.348;2023-01-24T08:52:47;28.90;;;18.33;;
4686;SDS011;2357;47.316;-1.348;2023-01-24T08:55:13;25.23;;;16.40;;
4686;SDS011;2357;47.316;-1.348;2023-01-24T08:57:39;32.23;;;17.83;;
4686;SDS011;2357;47.316;-1.348;2023-01-24T09:00:05;26.70;;;16.47;;
4686;SDS011;2357;47.316;-1.348;2023-01-24T09:02:31;26.83;;;16.70;;
4686;SDS011;2357;47.316;-1.348;2023-01-24T09:05:03;28.00;;;16.97;;
4686;SDS011;2357;47.316;-1.348;2023-01-24T09:07:30;30.77;;;17.20;;
4686;SDS011;2357;47.316;-1.348;2023-01-24T09:09:55;27.27;;;16.67;;
4686;SDS011;2357;47.316;-1.348;2023-01-24T09:12:21;27.47;;;17.00;;
4686;SDS011;2357;47.316;-1.348;2023-01-24T09:14:46;26.63;;;16.63;;
4686;SDS011;2357;47.316;-1.348;2023-01-24T09:17:12;26.57;;;17.10;;
4686;SDS011;2357;47.316;-1.348;2023-01-24T09:19:38;27.10;;;16.50;;
4686;SDS011;2357;47.316;-1.348;2023-01-24T09:22:03;32.40;;;18.77;;
4686;SDS011;2357;47.316;-1.348;2023-01-24T09:24:29;35.43;;;18.00;;
4686;SDS011;2357;47.316;-1.348;2023-01-24T09:26:54;31.73;;;18.50;;
4686;SDS011;2357;47.316;-1.348;2023-01-24T09:29:20;32.10;;;17.93;;
4686;SDS011;2357;47.316;-1.348;2023-01-24T09:31:46;27.20;;;17.07;;
4686;SDS011;2357;47.316;-1.348;2023-01-24T09:34:13;27.70;;;16.83;;
4686;SDS011;2357;47.316;-1.348;2023-01-24T09:36:39;25.57;;;16.27;;
4686;SDS011;2357;47.316;-1.348;2023-01-24T09:39:04;28.77;;;16.83;;
4686;SDS011;2357;47.316;-1.348;2023-01-24T09:44:03;29.43;;;17.20;;
4686;SDS011;2357;47.316;-1.348;2023-01-24T09:46:55;25.63;;;15.87;;
4686;SDS011;2357;47.316;-1.348;2023-01-24T09:52:01;31.10;;;16.10;;
4686;SDS011;2357;47.316;-1.348;2023-01-24T09:54:35;29.67;;;15.80;;
4686;SDS011;2357;47.316;-1.348;2023-01-24T09:57:11;30.27;;;15.67;;
4686;SDS011;2357;47.316;-1.348;2023-01-24T09:59:51;28.67;;;17.43;;
4686;SDS011;2357;47.316;-1.348;2023-01-24T10:02:21;27.63;;;15.77;;
4686;SDS011;2357;47.316;-1.348;2023-01-24T10:04:49;31.03;;;16.87;;
4686;SDS011;2357;47.316;-1.348;2023-01-24T10:21:27;29.90;;;17.43;;
4686;SDS011;2357;47.316;-1.348;2023-01-24T10:24:11;26.90;;;16.13;;
4686;SDS011;2357;47.316;-1.348;2023-01-24T10:26:42;26.70;;;15.10;;
4686;SDS011;2357;47.316;-1.348;2023-01-24T10:29:25;20.67;;;14.10;;
4686;SDS011;2357;47.316;-1.348;2023-01-24T10:32:05;19.90;;;13.27;;
4686;SDS011;2357;47.316;-1.348;2023-01-24T10:34:43;23.87;;;14.67;;
4686;SDS011;2357;47.316;-1.348;2023-01-24T10:37:14;26.30;;;15.57;;
4686;SDS011;2357;47.316;-1.348;2023-01-24T10:39:47;22.17;;;15.47;;
4686;SDS011;2357;47.316;-1.348;2023-01-24T10:42:21;23.93;;;14.40;;
4686;SDS011;2357;47.316;-1.348;2023-01-24T10:44:57;20.23;;;13.70;;
4686;SDS011;2357;47.316;-1.348;2023-01-24T10:50:14;23.43;;;15.13;;
4686;SDS011;2357;47.316;-1.348;2023-01-24T10:52:41;23.30;;;14.50;;
4686;SDS011;2357;47.316;-1.348;2023-01-24T10:58:22;20.30;;;13.33;;
4686;SDS011;2357;47.316;-1.348;2023-01-24T11:00:57;17.73;;;11.13;;
4686;SDS011;2357;47.316;-1.348;2023-01-24T11:03:31;26.97;;;13.93;;
4686;SDS011;2357;47.316;-1.348;2023-01-24T11:06:00;22.27;;;14.53;;
4686;SDS011;2357;47.316;-1.348;2023-01-24T11:08:33;23.93;;;13.97;;
4686;SDS011;2357;47.316;-1.348;2023-01-24T11:11:01;24.50;;;13.40;;
4686;SDS011;2357;47.316;-1.348;2023-01-24T11:13:32;24.90;;;14.80;;
4686;SDS011;2357;47.316;-1.348;2023-01-24T11:16:04;25.40;;;15.30;;
4686;SDS011;2357;47.316;-1.348;2023-01-24T11:18:56;28.77;;;16.13;;
4686;SDS011;2357;47.316;-1.348;2023-01-24T11:21:24;26.30;;;15.10;;
4686;SDS011;2357;47.316;-1.348;2023-01-24T11:23:59;23.97;;;13.40;;
4686;SDS011;2357;47.316;-1.348;2023-01-24T11:26:31;20.90;;;12.80;;
4686;SDS011;2357;47.316;-1.348;2023-01-24T11:31:38;26.67;;;14.40;;
4686;SDS011;2357;47.316;-1.348;2023-01-24T11:37:05;23.90;;;14.10;;
4686;SDS011;2357;47.316;-1.348;2023-01-24T11:48:35;32.23;;;18.93;;
4686;SDS011;2357;47.316;-1.348;2023-01-24T12:02:28;35.00;;;20.27;;
4686;SDS011;2357;47.316;-1.348;2023-01-24T12:13:14;38.00;;;21.17;;
4686;SDS011;2357;47.316;-1.348;2023-01-24T12:19:01;34.70;;;20.47;;
4686;SDS011;2357;47.316;-1.348;2023-01-24T12:21:48;37.00;;;18.93;;
4686;SDS011;2357;47.316;-1.348;2023-01-24T12:24:20;29.83;;;17.07;;
4686;SDS011;2357;47.316;-1.348;2023-01-24T12:27:02;25.17;;;16.60;;
4686;SDS011;2357;47.316;-1.348;2023-01-24T12:29:42;28.70;;;16.17;;
4686;SDS011;2357;47.316;-1.348;2023-01-24T12:32:15;29.10;;;16.40;;
4686;SDS011;2357;47.316;-1.348;2023-01-24T12:34:53;26.47;;;15.57;;
4686;SDS011;2357;47.316;-1.348;2023-01-24T12:45:17;27.93;;;16.30;;
4686;SDS011;2357;47.316;-1.348;2023-01-24T12:47:48;25.77;;;15.20;;
4686;SDS011;2357;47.316;-1.348;2023-01-24T12:50:40;30.63;;;15.20;;
4686;SDS011;2357;47.316;-1.348;2023-01-24T12:53:23;25.33;;;15.13;;
4686;SDS011;2357;47.316;-1.348;2023-01-24T12:56:15;25.40;;;15.20;;
4686;SDS011;2357;47.316;-1.348;2023-01-24T12:58:46;26.87;;;16.10;;
4686;SDS011;2357;47.316;-1.348;2023-01-24T13:11:41;25.27;;;15.87;;
4686;SDS011;2357;47.316;-1.348;2023-01-24T13:14:20;29.23;;;16.00;;
4686;SDS011;2357;47.316;-1.348;2023-01-24T13:34:10;39.00;;;20.13;;
4686;SDS011;2357;47.316;-1.348;2023-01-24T13:36:40;32.83;;;18.57;;
4686;SDS011;2357;47.316;-1.348;2023-01-24T13:42:01;29.63;;;18.57;;
4686;SDS011;2357;47.316;-1.348;2023-01-24T13:44:44;33.17;;;18.50;;
4686;SDS011;2357;47.316;-1.348;2023-01-24T13:49:38;34.53;;;19.43;;
4686;SDS011;2357;47.316;-1.348;2023-01-24T13:52:52;31.13;;;18.00;;
4686;SDS011;2357;47.316;-1.348;2023-01-24T13:55:01;38.53;;;22.47;;
4686;SDS011;2357;47.316;-1.348;2023-01-24T14:16:13;39.83;;;20.10;;
4686;SDS011;2357;47.316;-1.348;2023-01-24T14:21:32;34.90;;;20.70;;
4686;SDS011;2357;47.316;-1.348;2023-01-24T14:24:20;30.97;;;17.77;;
4686;SDS011;2357;47.316;-1.348;2023-01-24T14:26:59;37.93;;;21.43;;
4686;SDS011;2357;47.316;-1.348;2023-01-24T14:29:46;35.60;;;20.10;;
4686;SDS011;2357;47.316;-1.348;2023-01-24T14:32:21;42.50;;;20.07;;
4686;SDS011;2357;47.316;-1.348;2023-01-24T14:34:53;35.63;;;19.70;;
4686;SDS011;2357;47.316;-1.348;2023-01-24T14:37:43;37.80;;;20.60;;
4686;SDS011;2357;47.316;-1.348;2023-01-24T14:40:30;31.57;;;18.30;;
4686;SDS011;2357;47.316;-1.348;2023-01-24T14:42:59;38.03;;;19.67;;
4686;SDS011;2357;47.316;-1.348;2023-01-24T14:45:30;41.00;;;20.30;;
4686;SDS011;2357;47.316;-1.348;2023-01-24T14:47:58;36.20;;;19.33;;
4686;SDS011;2357;47.316;-1.348;2023-01-24T14:50:26;38.33;;;20.77;;
4686;SDS011;2357;47.316;-1.348;2023-01-24T14:52:54;36.17;;;19.80;;
4686;SDS011;2357;47.316;-1.348;2023-01-24T14:58:12;39.43;;;19.50;;
4686;SDS011;2357;47.316;-1.348;2023-01-24T15:00:58;33.07;;;19.60;;
4686;SDS011;2357;47.316;-1.348;2023-01-24T15:03:29;34.80;;;20.73;;
4686;SDS011;2357;47.316;-1.348;2023-01-24T15:05:58;36.63;;;19.27;;
4686;SDS011;2357;47.316;-1.348;2023-01-24T15:08:24;35.60;;;19.17;;
4686;SDS011;2357;47.316;-1.348;2023-01-24T15:10:58;36.10;;;19.67;;
4686;SDS011;2357;47.316;-1.348;2023-01-24T15:13:54;34.23;;;19.30;;
4686;SDS011;2357;47.316;-1.348;2023-01-24T15:16:45;36.20;;;19.80;;
4686;SDS011;2357;47.316;-1.348;2023-01-24T15:19:24;37.03;;;20.23;;
4686;SDS011;2357;47.316;-1.348;2023-01-24T15:21:52;32.43;;;18.70;;
4686;SDS011;2357;47.316;-1.348;2023-01-24T15:24:23;32.60;;;19.77;;
4686;SDS011;2357;47.316;-1.348;2023-01-24T15:26:53;35.60;;;18.37;;
4686;SDS011;2357;47.316;-1.348;2023-01-24T15:31:57;36.53;;;18.83;;
4686;SDS011;2357;47.316;-1.348;2023-01-24T15:34:23;26.63;;;15.53;;
4686;SDS011;2357;47.316;-1.348;2023-01-24T15:36:59;28.40;;;14.97;;
4686;SDS011;2357;47.316;-1.348;2023-01-24T15:39:25;32.73;;;17.93;;
4686;SDS011;2357;47.316;-1.348;2023-01-24T15:41:52;35.27;;;18.87;;
4686;SDS011;2357;47.316;-1.348;2023-01-24T15:44:46;33.17;;;17.70;;
4686;SDS011;2357;47.316;-1.348;2023-01-24T15:47:19;38.77;;;20.07;;
4686;SDS011;2357;47.316;-1.348;2023-01-24T15:50:17;33.07;;;17.00;;
4686;SDS011;2357;47.316;-1.348;2023-01-24T15:53:23;31.83;;;17.47;;
4686;SDS011;2357;47.316;-1.348;2023-01-24T15:55:52;35.07;;;19.27;;
4686;SDS011;2357;47.316;-1.348;2023-01-24T15:58:19;33.07;;;18.60;;
4686;SDS011;2357;47.316;-1.348;2023-01-24T16:00:51;37.30;;;19.40;;
4686;SDS011;2357;47.316;-1.348;2023-01-24T16:03:18;33.87;;;17.93;;
4686;SDS011;2357;47.316;-1.348;2023-01-24T16:05:44;31.50;;;18.07;;
4686;SDS011;2357;47.316;-1.348;2023-01-24T16:08:10;37.57;;;19.17;;
4686;SDS011;2357;47.316;-1.348;2023-01-24T16:10:35;30.43;;;19.83;;
4686;SDS011;2357;47.316;-1.348;2023-01-24T16:13:01;34.67;;;18.80;;
4686;SDS011;2357;47.316;-1.348;2023-01-24T16:15:27;35.20;;;19.47;;
4686;SDS011;2357;47.316;-1.348;2023-01-24T16:17:53;51.50;;;25.80;;
4686;SDS011;2357;47.316;-1.348;2023-01-24T16:20:19;35.00;;;20.70;;
4686;SDS011;2357;47.316;-1.348;2023-01-24T16:22:47;35.53;;;21.20;;
4686;SDS011;2357;47.316;-1.348;2023-01-24T16:25:13;37.47;;;20.20;;
4686;SDS011;2357;47.316;-1.348;2023-01-24T16:27:40;45.20;;;23.40;;
4686;SDS011;2357;47.316;-1.348;2023-01-24T16:30:17;40.80;;;22.40;;
4686;SDS011;2357;47.316;-1.348;2023-01-24T16:32:44;39.83;;;23.07;;
4686;SDS011;2357;47.316;-1.348;2023-01-24T16:35:10;31.13;;;19.20;;
4686;SDS011;2357;47.316;-1.348;2023-01-24T16:37:36;29.27;;;17.77;;
4686;SDS011;2357;47.316;-1.348;2023-01-24T16:40:02;28.30;;;18.10;;
4686;SDS011;2357;47.316;-1.348;2023-01-24T16:42:27;33.17;;;18.07;;
4686;SDS011;2357;47.316;-1.348;2023-01-24T16:45:02;35.23;;;18.30;;
4686;SDS011;2357;47.316;-1.348;2023-01-24T16:47:28;35.27;;;19.77;;
4686;SDS011;2357;47.316;-1.348;2023-01-24T16:49:54;40.63;;;21.07;;
4686;SDS011;2357;47.316;-1.348;2023-01-24T16:52:21;34.07;;;19.03;;
4686;SDS011;2357;47.316;-1.348;2023-01-24T16:54:49;37.80;;;21.57;;
4686;SDS011;2357;47.316;-1.348;2023-01-24T16:57:15;34.07;;;19.70;;
4686;SDS011;2357;47.316;-1.348;2023-01-24T16:59:41;41.87;;;19.57;;
4686;SDS011;2357;47.316;-1.348;2023-01-24T17:02:08;42.50;;;20.80;;
4686;SDS011;2357;47.316;-1.348;2023-01-24T17:04:34;38.87;;;21.13;;
4686;SDS011;2357;47.316;-1.348;2023-01-24T17:06:59;43.17;;;23.20;;
4686;SDS011;2357;47.316;-1.348;2023-01-24T17:09:28;42.43;;;23.03;;
4686;SDS011;2357;47.316;-1.348;2023-01-24T17:11:54;38.50;;;21.17;;
4686;SDS011;2357;47.316;-1.348;2023-01-24T17:14:20;35.93;;;21.73;;